createdAt,value
2023-01-23T00:01:29.888Z,99899.88
2023-01-23T00:03:57.977Z,99900.72
2023-01-23T00:06:27.902Z,99896.34
2023-01-23T00:08:57.044Z,99889.19
2023-01-23T00:11:27.811Z,99888.38
2023-01-23T00:13:57.223Z,99892.16
2023-01-23T00:16:28.110Z,99887.53
2023-01-23T00:18:56.028Z,99895.78
2023-01-23T00:21:26.468Z,99901.88
2023-01-23T00:23:57.133Z,99906.94
2023-01-23T00:26:27.372Z,99892.38
2023-01-23T00:28:55.693Z,99901.41
2023-01-23T00:31:28.040Z,99902.56
2023-01-23T00:34:02.764Z,99911.84
2023-01-23T00:36:39.693Z,99899.28
2023-01-23T00:39:16.827Z,99897.53
2023-01-23T00:41:49.828Z,99903.16
2023-01-23T00:44:18.221Z,99897.44
2023-01-23T00:46:46.251Z,99900.59
2023-01-23T00:49:15.824Z,99894.91
2023-01-23T00:51:47.634Z,99903.41
2023-01-23T00:54:15.733Z,99904.81
2023-01-23T00:56:43.727Z,99896.16
2023-01-23T00:59:12.845Z,99906.69
2023-01-23T01:01:40.913Z,99903.28
2023-01-23T01:04:08.853Z,99921.38
2023-01-23T01:06:37.302Z,99911.16
2023-01-23T01:09:06.187Z,99902.38
2023-01-23T01:11:34.328Z,99910.47
2023-01-23T01:14:02.220Z,99920.44
2023-01-23T01:16:30.549Z,99919.22
2023-01-23T01:18:59.822Z,99912.78
2023-01-23T01:21:28.527Z,99918.06
2023-01-23T01:23:56.853Z,99919.94
2023-01-23T01:26:27.843Z,99910.78
2023-01-23T01:28:57.855Z,99904.31
2023-01-23T01:31:25.898Z,99905.84
2023-01-23T01:33:55.665Z,99895.31
2023-01-23T01:36:24.819Z,99901.75
2023-01-23T01:38:54.506Z,99903.53
2023-01-23T01:41:22.423Z,99913.84
2023-01-23T01:43:51.680Z,99905.16
2023-01-23T01:46:22.902Z,99910.22
2023-01-23T01:49:02.841Z,99911.63
2023-01-23T01:51:36.847Z,99914.66
2023-01-23T01:54:14.761Z,99920.66
2023-01-23T01:56:52.002Z,99919.84
2023-01-23T01:59:23.194Z,99913.84
2023-01-23T02:02:12.715Z,99911.50
2023-01-23T02:04:47.300Z,99910.34
2023-01-23T02:07:27.919Z,99904.69
2023-01-23T02:09:57.120Z,99906.81
2023-01-23T02:12:26.954Z,99902.44
2023-01-23T02:14:55.288Z,99895.06
2023-01-23T02:17:23.281Z,99890.94
2023-01-23T02:20:11.723Z,99896.00
2023-01-23T02:23:21.658Z,99897.19
2023-01-23T02:26:04.619Z,99902.94
2023-01-23T02:28:42.717Z,99901.16
2023-01-23T02:31:19.002Z,99902.94
2023-01-23T02:33:50.334Z,99908.44
2023-01-23T02:39:18.840Z,99895.16
2023-01-23T02:41:51.881Z,99894.31
2023-01-23T02:44:28.846Z,99897.53
2023-01-23T02:47:04.983Z,99888.38
2023-01-23T02:49:34.035Z,99888.75
2023-01-23T02:52:06.086Z,99898.19
2023-01-23T02:54:36.721Z,99895.38
2023-01-23T02:57:04.602Z,99895.97
2023-01-23T02:59:51.832Z,99899.25
2023-01-23T03:02:21.045Z,99889.75
2023-01-23T03:04:49.893Z,99891.28
2023-01-23T03:07:18.170Z,99888.59
2023-01-23T03:09:48.811Z,99875.88
2023-01-23T03:12:16.846Z,99882.97
2023-01-23T03:14:46.423Z,99874.13
2023-01-23T03:17:15.979Z,99875.41
2023-01-23T03:19:44.978Z,99880.25
2023-01-23T03:22:13.028Z,99876.72
2023-01-23T03:25:06.368Z,99870.16
2023-01-23T03:27:36.625Z,99860.53
2023-01-23T03:30:15.992Z,99867.56
2023-01-23T03:32:46.135Z,99855.69
2023-01-23T03:35:20.863Z,99859.53
2023-01-23T03:37:52.799Z,99853.81
2023-01-23T03:40:44.207Z,99858.91
2023-01-23T03:43:16.407Z,99859.38
2023-01-23T03:48:42.148Z,99858.31
2023-01-23T03:51:10.168Z,99864.34
2023-01-23T03:53:38.352Z,99865.78
2023-01-23T03:56:07.284Z,99888.13
2023-01-23T03:58:35.948Z,99884.03
2023-01-23T04:01:08.929Z,99871.69
2023-01-23T04:03:39.827Z,99866.97
2023-01-23T04:06:08.796Z,99870.84
2023-01-23T04:08:37.626Z,99873.53
2023-01-23T04:11:08.839Z,99866.63
2023-01-23T04:13:37.806Z,99865.53
2023-01-23T04:16:08.086Z,99866.88
2023-01-23T04:18:36.838Z,99871.44
2023-01-23T04:21:07.929Z,99868.28
2023-01-23T04:23:36.523Z,99869.44
2023-01-23T04:26:04.496Z,99872.13
2023-01-23T04:28:32.502Z,99868.13
2023-01-23T04:31:02.007Z,99880.22
2023-01-23T04:33:32.627Z,99877.41
2023-01-23T04:36:04.698Z,99882.59
2023-01-23T04:38:37.982Z,99885.03
2023-01-23T04:41:22.935Z,99887.03
2023-01-23T04:47:35.836Z,99888.81
2023-01-23T04:50:09.828Z,99885.53
2023-01-23T04:55:34.949Z,99897.03
2023-01-23T04:58:06.268Z,99884.34
2023-01-23T05:00:34.190Z,99876.88
2023-01-23T05:03:04.875Z,99878.66
2023-01-23T05:05:33.485Z,99885.25
2023-01-23T05:08:02.846Z,99881.84
2023-01-23T05:10:31.273Z,99884.81
2023-01-23T05:13:06.873Z,99888.44
2023-01-23T05:15:34.790Z,99894.06
2023-01-23T05:20:59.977Z,99915.56
2023-01-23T05:23:53.037Z,99930.13
2023-01-23T05:26:22.892Z,99935.91
2023-01-23T05:28:50.785Z,99937.56
2023-01-23T05:31:21.918Z,99943.66
2023-01-23T05:34:10.482Z,99938.72
2023-01-23T05:36:42.837Z,99941.06
2023-01-23T05:39:10.807Z,99944.13
2023-01-23T05:41:38.894Z,99945.53
2023-01-23T05:44:27.315Z,99939.56
2023-01-23T05:47:02.895Z,99938.22
2023-01-23T05:49:31.377Z,99927.75
2023-01-23T05:52:24.821Z,99931.59
2023-01-23T05:54:52.870Z,99936.81
2023-01-23T05:57:21.077Z,99931.75
2023-01-23T06:00:14.140Z,99946.81
2023-01-23T06:02:57.047Z,99940.84
2023-01-23T06:05:24.910Z,99936.25
2023-01-23T06:08:07.879Z,99955.75
2023-01-23T06:10:38.018Z,99952.94
2023-01-23T06:13:07.024Z,99958.81
2023-01-23T06:15:37.008Z,99961.63
2023-01-23T06:18:16.964Z,99959.75
2023-01-23T06:20:46.418Z,99976.19
2023-01-23T06:23:15.225Z,99971.75
2023-01-23T06:25:43.881Z,99975.25
2023-01-23T06:28:13.230Z,99974.34
2023-01-23T06:30:41.178Z,99977.25
2023-01-23T06:33:20.953Z,99977.50
2023-01-23T06:35:48.885Z,99979.50
2023-01-23T06:38:16.734Z,99985.25
2023-01-23T06:40:49.128Z,99981.22
2023-01-23T06:43:26.510Z,100003.16
2023-01-23T06:45:57.105Z,99978.72
2023-01-23T06:48:25.896Z,99973.34
2023-01-23T06:50:53.884Z,99994.81
2023-01-23T06:56:14.222Z,99994.00
2023-01-23T06:58:46.393Z,99979.91
2023-01-23T07:01:26.903Z,99995.44
2023-01-23T07:04:13.303Z,99990.72
2023-01-23T07:06:43.975Z,100007.16
2023-01-23T07:09:16.326Z,100002.47
2023-01-23T07:11:50.856Z,100003.06
2023-01-23T07:14:22.875Z,100010.94
2023-01-23T07:16:57.903Z,100011.28
2023-01-23T07:19:26.820Z,100006.94
2023-01-23T07:21:56.023Z,100004.59
2023-01-23T07:27:16.424Z,99998.81
2023-01-23T07:29:44.319Z,99991.06
2023-01-23T07:32:12.219Z,99987.53
2023-01-23T07:34:40.892Z,99990.59
2023-01-23T07:37:09.640Z,99983.91
2023-01-23T07:39:37.526Z,99985.06
2023-01-23T07:42:05.973Z,99989.06
2023-01-23T07:44:34.954Z,99980.13
2023-01-23T07:47:02.776Z,99985.19
2023-01-23T07:49:30.695Z,99979.06
2023-01-23T07:51:59.547Z,99978.81
2023-01-23T07:54:27.447Z,99983.19
2023-01-23T07:56:56.058Z,99977.91
2023-01-23T07:59:24.080Z,99968.72
2023-01-23T08:01:53.527Z,99973.34
2023-01-23T08:04:21.454Z,99961.84
2023-01-23T08:06:50.833Z,99957.56
2023-01-23T08:09:18.874Z,99966.06
2023-01-23T08:11:46.869Z,99960.34
2023-01-23T08:14:14.808Z,99962.53
2023-01-23T08:16:42.762Z,99962.59
2023-01-23T08:19:10.650Z,99971.78
2023-01-23T08:21:38.531Z,99977.19
2023-01-23T08:24:06.840Z,99973.38
2023-01-23T08:26:35.809Z,99971.59
2023-01-23T08:29:04.989Z,99981.09
2023-01-23T08:31:32.956Z,99968.38
2023-01-23T08:34:00.815Z,99965.22
2023-01-23T08:36:28.891Z,99968.19
2023-01-23T08:38:56.783Z,99972.31
2023-01-23T08:41:26.967Z,99981.63
2023-01-23T08:43:57.541Z,99980.38
2023-01-23T08:46:26.659Z,99981.81
2023-01-23T08:48:54.649Z,99986.41
2023-01-23T08:51:24.882Z,99985.59
2023-01-23T08:53:54.509Z,99988.78
2023-01-23T08:56:26.047Z,99991.75
2023-01-23T08:59:19.232Z,99996.75
2023-01-23T09:01:49.380Z,99998.53
2023-01-23T09:04:17.579Z,100001.63
2023-01-23T09:06:45.589Z,100000.41
2023-01-23T09:09:13.610Z,100000.75
2023-01-23T09:11:41.714Z,100010.88
2023-01-23T09:14:10.282Z,99998.88
2023-01-23T09:17:03.004Z,99999.53
2023-01-23T09:19:33.880Z,99986.34
2023-01-23T09:22:03.667Z,99996.22
2023-01-23T09:24:31.531Z,99991.53
2023-01-23T09:26:59.843Z,99988.09
2023-01-23T09:29:28.172Z,99981.09
2023-01-23T09:31:56.910Z,99984.16
2023-01-23T09:34:24.908Z,99992.50
2023-01-23T09:36:54.915Z,99991.22
2023-01-23T09:39:22.808Z,99986.31
2023-01-23T09:41:50.784Z,99993.75
2023-01-23T09:44:28.902Z,99990.56
2023-01-23T09:47:14.850Z,99995.16
2023-01-23T09:49:58.478Z,99994.94
2023-01-23T09:52:34.828Z,99997.97
2023-01-23T09:55:22.472Z,99998.34
2023-01-23T09:57:57.239Z,99992.50
2023-01-23T10:00:31.814Z,99995.63
2023-01-23T10:03:09.860Z,99997.03
2023-01-23T10:06:05.712Z,99998.91
2023-01-23T10:08:59.893Z,100001.63
2023-01-23T10:11:37.501Z,100001.72
2023-01-23T10:14:17.155Z,99997.59
2023-01-23T10:17:13.859Z,100002.84
2023-01-23T10:20:19.453Z,99996.09
2023-01-23T10:23:02.439Z,100003.50
2023-01-23T10:25:37.613Z,99996.78
2023-01-23T10:28:24.183Z,100004.47
2023-01-23T10:30:59.955Z,100002.03
2023-01-23T10:33:44.246Z,100000.94
2023-01-23T10:36:23.442Z,99995.78
2023-01-23T10:39:02.397Z,99998.91
2023-01-23T10:41:30.852Z,100001.88
2023-01-23T10:44:00.594Z,99997.91
2023-01-23T10:47:00.039Z,99993.59
2023-01-23T10:49:36.431Z,99991.38
2023-01-23T10:52:05.924Z,99987.94
2023-01-23T10:54:45.707Z,99978.03
2023-01-23T10:57:13.850Z,99982.13
2023-01-23T11:00:00.498Z,99980.22
2023-01-23T11:05:52.496Z,99980.22
2023-01-23T11:08:28.480Z,99973.81
2023-01-23T11:11:15.867Z,99974.16
2023-01-23T11:13:46.272Z,99958.22
2023-01-23T11:16:24.062Z,99958.72
2023-01-23T11:19:03.405Z,99965.38
2023-01-23T11:21:36.679Z,99954.88
2023-01-23T11:24:20.467Z,99950.44
2023-01-23T11:27:04.916Z,99951.69
2023-01-23T11:29:55.370Z,99955.38
2023-01-23T11:32:24.607Z,99947.00
2023-01-23T11:35:03.951Z,99955.38
2023-01-23T11:37:37.195Z,99959.06
2023-01-23T11:40:08.284Z,99954.66
2023-01-23T11:42:40.525Z,99958.72
2023-01-23T11:45:46.593Z,99945.03
2023-01-23T11:48:35.721Z,99938.06
2023-01-23T11:51:24.596Z,99937.00
2023-01-23T11:54:23.770Z,99946.59
2023-01-23T11:57:19.351Z,99940.88
2023-01-23T11:59:57.501Z,99939.16
2023-01-23T12:02:39.338Z,99932.50
2023-01-23T12:05:38.779Z,99934.06
2023-01-23T12:08:09.707Z,99931.91
2023-01-23T12:11:03.869Z,99933.56
2023-01-23T12:13:47.179Z,99933.25
2023-01-23T12:16:59.623Z,99939.41
2023-01-23T12:20:00.583Z,99924.03
2023-01-23T12:22:41.142Z,99914.88
2023-01-23T12:25:20.999Z,99916.81
2023-01-23T12:27:57.852Z,99928.78
2023-01-23T12:30:25.898Z,99928.06
2023-01-23T12:33:03.752Z,99916.72
2023-01-23T12:35:54.972Z,99917.81
2023-01-23T12:38:58.924Z,99915.66
2023-01-23T12:41:36.703Z,99931.66
2023-01-23T12:44:13.790Z,99942.50
2023-01-23T12:46:51.905Z,99929.19
2023-01-23T12:49:48.389Z,99933.88
2023-01-23T12:52:38.685Z,99931.63
2023-01-23T12:55:21.821Z,99931.41
2023-01-23T12:57:59.841Z,99929.50
2023-01-23T13:00:54.648Z,99921.66
2023-01-23T13:03:45.710Z,99922.47
2023-01-23T13:06:26.365Z,99929.84
2023-01-23T13:09:36.247Z,99938.19
2023-01-23T13:12:26.409Z,99938.53
2023-01-23T13:15:22.665Z,99928.59
2023-01-23T13:17:59.883Z,99910.34
2023-01-23T13:20:52.369Z,99916.72
2023-01-23T13:23:29.215Z,99914.28
2023-01-23T13:26:15.530Z,99911.31
2023-01-23T13:28:46.607Z,99908.53
2023-01-23T13:31:30.884Z,99902.13
2023-01-23T13:34:13.947Z,99905.84
2023-01-23T13:36:54.120Z,99892.78
2023-01-23T13:39:31.119Z,99907.41
2023-01-23T13:42:22.105Z,99920.25
2023-01-23T13:45:17.759Z,99928.69
2023-01-23T14:24:43.738Z,99916.09
2023-01-23T14:27:30.473Z,99923.13
2023-01-23T14:30:16.651Z,99910.84
2023-01-23T14:32:45.915Z,99920.44
2023-01-23T14:35:17.742Z,99916.09
2023-01-23T14:37:46.937Z,99913.06
2023-01-23T14:40:27.223Z,99911.81
2023-01-23T14:43:05.134Z,99912.16
2023-01-23T14:45:33.989Z,99911.91
2023-01-23T14:48:06.843Z,99907.81
2023-01-23T14:50:35.923Z,99904.03
2023-01-23T14:53:07.118Z,99904.69
2023-01-23T14:55:40.174Z,99906.97
2023-01-23T14:58:21.283Z,99914.03
2023-01-23T15:00:50.665Z,99916.41
2023-01-23T15:03:38.249Z,99922.13
2023-01-23T15:06:21.111Z,99922.66
2023-01-23T15:08:50.227Z,99925.53
2023-01-23T15:11:26.504Z,99925.34
2023-01-23T15:14:01.534Z,99922.81
2023-01-23T15:16:34.214Z,99915.41
2023-01-23T15:19:05.869Z,99921.72
2023-01-23T15:21:42.785Z,99934.47
2023-01-23T15:24:14.676Z,99935.50
2023-01-23T15:26:57.479Z,99922.47
2023-01-23T15:29:27.142Z,99942.50
2023-01-23T15:31:56.200Z,99938.38
2023-01-23T15:34:29.164Z,99938.72
2023-01-23T15:37:12.297Z,99929.22
2023-01-23T15:39:46.245Z,99942.06
2023-01-23T15:42:14.163Z,99939.63
2023-01-23T15:44:42.864Z,99939.06
2023-01-23T15:47:11.110Z,99936.28
2023-01-23T15:49:40.445Z,99929.63
2023-01-23T15:52:25.784Z,99938.78
2023-01-23T15:55:03.982Z,99931.66
2023-01-23T15:57:32.568Z,99950.81
2023-01-23T16:00:01.288Z,99954.25
2023-01-23T16:02:31.526Z,99953.06
2023-01-23T16:05:01.272Z,99961.53
2023-01-23T16:07:35.072Z,99956.75
2023-01-23T16:10:07.192Z,99963.16
2023-01-23T16:12:38.780Z,99957.75
2023-01-23T16:15:15.957Z,99965.13
2023-01-23T16:17:44.303Z,99957.31
2023-01-23T16:20:38.183Z,99958.56
2023-01-23T16:23:22.917Z,99960.13
2023-01-23T16:25:51.602Z,99961.84
2023-01-23T16:28:22.866Z,99959.28
2023-01-23T16:30:51.871Z,99938.88
2023-01-23T16:33:21.014Z,99955.13
2023-01-23T16:35:51.082Z,99954.72
2023-01-23T16:38:21.690Z,99958.81
2023-01-23T16:40:53.092Z,99967.59
2023-01-23T16:43:22.252Z,99967.59
2023-01-23T16:45:54.276Z,99969.06
2023-01-23T16:48:27.881Z,99976.63
2023-01-23T16:51:04.361Z,99978.84
2023-01-23T16:53:37.267Z,99970.72
2023-01-23T16:56:06.508Z,99975.13
2023-01-23T16:58:40.128Z,99964.41
2023-01-23T17:01:15.432Z,99973.34
2023-01-23T17:03:44.774Z,99967.09
2023-01-23T17:06:17.097Z,99977.78
2023-01-23T17:08:45.122Z,99971.53
2023-01-23T17:11:24.208Z,99973.19
2023-01-23T17:14:00.904Z,99971.78
2023-01-23T17:16:29.876Z,99965.69
2023-01-23T17:19:01.169Z,99975.63
2023-01-23T17:21:34.027Z,99977.28
2023-01-23T17:24:02.352Z,99969.91
2023-01-23T17:26:31.592Z,99980.22
2023-01-23T17:28:59.738Z,99980.31
2023-01-23T17:31:28.917Z,99969.34
2023-01-23T17:33:56.965Z,99977.28
2023-01-23T17:36:26.353Z,99977.69
2023-01-23T17:38:59.012Z,99978.59
2023-01-23T17:41:27.126Z,99976.72
2023-01-23T17:43:55.055Z,99977.28
2023-01-23T17:46:29.838Z,99971.06
2023-01-23T17:48:57.977Z,99974.53
2023-01-23T17:51:27.003Z,99974.16
2023-01-23T17:53:55.265Z,99978.59
2023-01-23T17:56:23.224Z,99978.44
2023-01-23T17:58:51.227Z,99973.56
2023-01-23T18:01:25.962Z,99984.84
2023-01-23T18:03:55.895Z,99986.16
2023-01-23T18:06:23.760Z,99986.00
2023-01-23T18:08:51.745Z,99992.91
2023-01-23T18:11:22.116Z,99988.94
2023-01-23T18:14:26.114Z,99990.88
2023-01-23T18:16:54.671Z,99986.72
2023-01-23T18:19:24.813Z,99986.47
2023-01-23T18:21:55.515Z,99980.38
2023-01-23T18:24:25.212Z,99989.44
2023-01-23T18:27:20.845Z,99983.75
2023-01-23T18:30:25.761Z,99992.28
2023-01-23T18:32:54.898Z,99994.19
2023-01-23T18:35:47.604Z,99997.28
2023-01-23T18:38:21.245Z,99983.53
2023-01-23T18:41:14.897Z,99986.72
2023-01-23T18:44:01.607Z,99991.22
2023-01-23T18:46:29.665Z,99986.53
2023-01-23T18:48:58.112Z,99995.09
2023-01-23T18:51:54.632Z,99980.06
2023-01-23T18:54:38.094Z,99992.03
2023-01-23T18:57:30.047Z,99997.56
2023-01-23T19:00:16.637Z,99996.81
2023-01-23T19:02:50.394Z,100016.50
2023-01-23T19:05:28.809Z,100006.19
2023-01-23T19:07:57.769Z,99997.41
2023-01-23T19:10:29.179Z,100000.50
2023-01-23T19:13:08.233Z,100013.88
2023-01-23T19:15:48.409Z,100014.69
2023-01-23T19:18:44.232Z,100005.94
2023-01-23T19:21:25.130Z,100010.44
2023-01-23T19:24:06.731Z,100003.53
2023-01-23T19:26:37.919Z,100005.50
2023-01-23T19:29:20.359Z,100007.41
2023-01-23T19:32:03.564Z,100012.59
2023-01-23T19:34:33.911Z,100009.63
2023-01-23T19:37:02.531Z,100006.81
2023-01-23T19:39:30.881Z,100005.19
2023-01-23T19:41:59.308Z,100003.13
2023-01-23T19:44:29.925Z,100001.25
2023-01-23T19:46:58.055Z,100010.53
2023-01-23T19:49:26.057Z,100006.28
2023-01-23T19:51:54.172Z,100002.06
2023-01-23T19:54:24.152Z,99996.41
2023-01-23T19:56:52.347Z,99989.38
2023-01-23T19:59:20.983Z,99994.06
2023-01-23T20:01:51.415Z,99990.41
2023-01-23T20:04:21.714Z,99997.66
2023-01-23T20:06:51.867Z,100012.91
2023-01-23T20:09:20.958Z,99998.63
2023-01-23T20:11:48.978Z,99996.19
2023-01-23T20:14:18.026Z,100008.16
2023-01-23T20:16:45.937Z,99992.56
2023-01-23T20:19:17.662Z,100000.88
2023-01-23T20:21:47.638Z,100012.09
2023-01-23T20:24:16.678Z,99999.88
2023-01-23T20:26:46.338Z,100000.69
2023-01-23T20:29:14.366Z,100007.75
2023-01-23T20:31:42.530Z,100014.88
2023-01-23T20:34:10.452Z,100018.56
2023-01-23T20:36:38.464Z,100024.56
2023-01-23T20:39:06.371Z,100019.41
2023-01-23T20:41:34.619Z,100019.09
2023-01-23T20:44:02.619Z,100031.97
2023-01-23T20:46:30.737Z,100036.06
2023-01-23T20:48:58.683Z,100049.28
2023-01-23T20:51:27.411Z,100041.47
2023-01-23T20:53:55.402Z,100040.66
2023-01-23T20:56:27.673Z,100043.81
2023-01-23T20:59:15.335Z,100047.31
2023-01-23T21:02:03.244Z,100052.00
2023-01-23T21:04:33.843Z,100059.97
2023-01-23T21:07:03.383Z,100054.28
2023-01-23T21:09:31.305Z,100066.44
2023-01-23T21:11:59.188Z,100065.97
2023-01-23T21:14:27.119Z,100061.69
2023-01-23T21:16:55.091Z,100063.03
2023-01-23T21:19:22.994Z,100059.06
2023-01-23T21:21:51.999Z,100057.41
2023-01-23T21:24:20.426Z,100058.34
2023-01-23T21:26:48.956Z,100059.38
2023-01-23T21:29:16.855Z,100064.66
2023-01-23T21:31:44.996Z,100068.53
2023-01-23T21:34:14.648Z,100071.53
2023-01-23T21:36:43.181Z,100069.44
2023-01-23T21:39:13.502Z,100066.22
2023-01-23T21:41:41.590Z,100067.19
2023-01-23T21:44:12.987Z,100063.34
2023-01-23T21:46:41.346Z,100063.75
2023-01-23T21:49:10.008Z,100065.06
2023-01-23T21:51:37.977Z,100065.31
2023-01-23T21:54:06.057Z,100069.34
2023-01-23T21:56:37.506Z,100067.78
2023-01-23T21:59:05.648Z,100075.31
2023-01-23T22:01:35.686Z,100076.16
2023-01-23T22:04:06.873Z,100077.22
2023-01-23T22:06:36.445Z,100078.34
2023-01-23T22:09:06.165Z,100085.91
2023-01-23T22:11:34.650Z,100077.47
2023-01-23T22:14:02.914Z,100086.75
2023-01-23T22:16:49.054Z,100085.44
2023-01-23T22:19:21.043Z,100081.56
2023-01-23T22:21:50.643Z,100082.63
2023-01-23T22:24:18.883Z,100084.38
2023-01-23T22:26:46.748Z,100083.97
2023-01-23T22:29:15.329Z,100085.69
2023-01-23T22:31:43.420Z,100089.78
2023-01-23T22:34:11.571Z,100083.31
2023-01-23T22:36:39.729Z,100088.38
2023-01-23T22:39:07.648Z,100094.53
2023-01-23T22:41:35.559Z,100095.13
2023-01-23T22:44:03.489Z,100095.53
2023-01-23T22:46:32.373Z,100093.31
2023-01-23T22:49:00.502Z,100087.88
2023-01-23T22:51:28.575Z,100092.31
2023-01-23T22:53:57.709Z,100096.84
2023-01-23T22:56:27.632Z,100102.28
2023-01-23T22:58:56.605Z,100103.59
2023-01-23T23:01:28.596Z,100106.72
2023-01-23T23:03:57.921Z,100106.56
2023-01-23T23:06:26.649Z,100104.56
2023-01-23T23:08:54.824Z,100109.75
2023-01-23T23:11:25.440Z,100086.66
2023-01-23T23:13:54.485Z,100107.19
2023-01-23T23:16:25.126Z,100102.91
2023-01-23T23:18:55.347Z,100109.75
2023-01-23T23:21:28.173Z,100113.59
2023-01-23T23:23:57.995Z,100109.34
2023-01-23T23:26:28.101Z,100104.75
2023-01-23T23:28:56.199Z,100105.47
2023-01-23T23:31:24.517Z,100099.97
2023-01-23T23:33:52.671Z,100101.09
2023-01-23T23:36:20.834Z,100106.78
2023-01-23T23:38:48.834Z,100101.63
2023-01-23T23:41:17.823Z,100100.31
2023-01-23T23:43:45.894Z,100097.34
2023-01-23T23:46:14.892Z,100101.47
2023-01-23T23:48:43.979Z,100109.34
2023-01-23T23:51:17.301Z,100096.38
2023-01-23T23:53:46.235Z,100107.63
2023-01-23T23:56:21.015Z,100099.13
2023-01-23T23:58:50.111Z,100103.97
